Time;durP1;ratioP1;P1;durP2;ratioP2;P2;SDS_P1;SDS_P2;PMS_P1;PMS_P2;Temp;Humidity;BMP_temperature;BMP_pressure;BME280_temperature;BME280_humidity;BME280_pressure;Samples;Min_cycle;Max_cycle;Signal;HPM_P1;HPM_P2
2022/03/21 00:00:34;;;;;;;52.83;34.38;;;;;;;;;;5090064;28;20822;-63
2022/03/21 00:03:01;;;;;;;53.13;35.35;;;;;;;;;;5092077;28;20087;-63
2022/03/21 00:05:29;;;;;;;52.88;35.00;;;;;;;;;;5090990;28;20073;-63
2022/03/21 00:07:56;;;;;;;55.03;35.72;;;;;;;;;;5086699;28;20055;-63
2022/03/21 00:10:22;;;;;;;51.75;34.38;;;;;;;;;;5090912;28;20032;-63
2022/03/21 00:12:49;;;;;;;56.00;35.85;;;;;;;;;;5091932;28;20089;-63
2022/03/21 00:15:15;;;;;;;59.58;36.20;;;;;;;;;;5089039;28;20380;-63
2022/03/21 00:17:41;;;;;;;54.70;36.70;;;;;;;;;;5085904;28;20451;-63
2022/03/21 00:20:08;;;;;;;55.40;35.90;;;;;;;;;;5092071;28;20032;-63
2022/03/21 00:22:34;;;;;;;55.10;35.60;;;;;;;;;;5089610;28;20402;-63
2022/03/21 00:25:00;;;;;;;58.95;36.97;;;;;;;;;;5091959;28;20128;-63
2022/03/21 00:27:26;;;;;;;57.67;35.25;;;;;;;;;;5089034;28;20135;-63
2022/03/21 00:29:52;;;;;;;55.60;34.03;;;;;;;;;;5091905;28;20465;-63
2022/03/21 00:32:18;;;;;;;56.75;34.10;;;;;;;;;;5089382;28;20036;-63
2022/03/21 00:34:45;;;;;;;53.50;35.67;;;;;;;;;;5091536;28;20036;-63
2022/03/21 00:37:12;;;;;;;53.72;34.75;;;;;;;;;;5091387;28;20035;-63
2022/03/21 00:39:39;;;;;;;53.90;35.25;;;;;;;;;;5084394;28;20040;-63
2022/03/21 00:42:05;;;;;;;54.78;34.95;;;;;;;;;;5090709;28;20043;-63
2022/03/21 00:44:31;;;;;;;53.63;33.83;;;;;;;;;;5086300;28;20048;-63
2022/03/21 00:46:57;;;;;;;54.33;35.03;;;;;;;;;;5091447;28;20039;-63
2022/03/21 00:49:23;;;;;;;52.38;35.22;;;;;;;;;;5088579;28;20410;-63
2022/03/21 00:51:49;;;;;;;54.15;34.22;;;;;;;;;;5090888;28;20040;-63
2022/03/21 00:54:15;;;;;;;51.55;32.70;;;;;;;;;;5090511;28;20044;-63
2022/03/21 00:56:41;;;;;;;57.30;36.15;;;;;;;;;;5091552;28;20039;-63
2022/03/21 00:59:07;;;;;;;52.58;35.58;;;;;;;;;;5087643;28;20040;-63
2022/03/21 01:01:33;;;;;;;49.90;34.10;;;;;;;;;;5089745;28;20039;-63
2022/03/21 01:03:59;;;;;;;50.47;33.20;;;;;;;;;;5088912;28;20048;-63
2022/03/21 01:06:25;;;;;;;50.72;33.08;;;;;;;;;;5090006;28;20044;-63
2022/03/21 01:08:51;;;;;;;48.22;31.75;;;;;;;;;;5091349;28;20036;-63
2022/03/21 01:11:17;;;;;;;51.67;33.78;;;;;;;;;;5082791;28;20059;-63
2022/03/21 01:13:43;;;;;;;46.72;31.25;;;;;;;;;;5090340;28;20513;-63
2022/03/21 01:16:09;;;;;;;45.17;30.13;;;;;;;;;;5089831;28;20034;-63
2022/03/21 01:18:36;;;;;;;47.47;30.67;;;;;;;;;;5089648;28;20124;-63
2022/03/21 01:21:02;;;;;;;45.08;30.85;;;;;;;;;;5090274;28;20040;-63
2022/03/21 01:23:28;;;;;;;43.97;29.60;;;;;;;;;;5091150;28;20391;-63
2022/03/21 01:25:54;;;;;;;48.53;32.42;;;;;;;;;;5085022;28;20109;-63
2022/03/21 01:28:21;;;;;;;52.25;33.05;;;;;;;;;;5091133;28;20089;-63
2022/03/21 01:30:47;;;;;;;54.70;33.80;;;;;;;;;;5088589;28;20127;-63
2022/03/21 01:33:13;;;;;;;47.90;31.23;;;;;;;;;;5089497;28;20135;-63
2022/03/21 01:35:39;;;;;;;52.53;32.97;;;;;;;;;;5090995;28;20036;-63
2022/03/21 01:38:05;;;;;;;50.00;32.38;;;;;;;;;;5089961;28;20044;-63
2022/03/21 01:40:31;;;;;;;50.45;32.28;;;;;;;;;;5087271;28;20040;-63
2022/03/21 01:42:57;;;;;;;53.28;33.38;;;;;;;;;;5089308;28;20126;-63
2022/03/21 01:45:28;;;;;;;55.45;34.83;;;;;;;;;;5090721;28;20040;-64
2022/03/21 01:47:54;;;;;;;55.75;35.05;;;;;;;;;;5089712;28;20119;-63
2022/03/21 01:50:21;;;;;;;56.20;34.05;;;;;;;;;;5086932;28;20131;-63
2022/03/21 01:52:47;;;;;;;52.25;33.20;;;;;;;;;;5088930;28;20036;-63
2022/03/21 01:57:59;;;;;;;55.70;36.92;;;;;;;;;;5087899;28;20044;-63
2022/03/21 02:00:25;;;;;;;58.50;36.50;;;;;;;;;;5089657;28;20395;-63
2022/03/21 02:02:52;;;;;;;57.30;36.47;;;;;;;;;;5085716;28;20066;-63
2022/03/21 02:05:18;;;;;;;56.33;35.85;;;;;;;;;;5090247;28;20047;-63
2022/03/21 02:07:44;;;;;;;58.92;36.30;;;;;;;;;;5089447;28;20044;-63
2022/03/21 02:10:10;;;;;;;54.70;35.15;;;;;;;;;;5089046;28;20044;-63
2022/03/21 02:12:37;;;;;;;49.80;31.42;;;;;;;;;;5085073;28;20044;-63
2022/03/21 02:15:04;;;;;;;53.58;33.45;;;;;;;;;;5087305;28;20483;-63
2022/03/21 02:17:30;;;;;;;50.55;33.42;;;;;;;;;;5090242;28;20071;-63
2022/03/21 02:19:57;;;;;;;51.67;33.10;;;;;;;;;;5089396;28;20032;-63
2022/03/21 02:22:33;;;;;;;55.95;32.60;;;;;;;;;;5090423;28;20039;-63
2022/03/21 02:25:06;;;;;;;54.67;33.40;;;;;;;;;;5083832;28;20440;-63
2022/03/21 02:27:33;;;;;;;58.53;34.15;;;;;;;;;;5089947;28;20044;-63
2022/03/21 02:30:00;;;;;;;51.30;33.10;;;;;;;;;;5089406;28;20410;-63
2022/03/21 02:32:27;;;;;;;50.70;32.75;;;;;;;;;;5089716;28;20070;-63
2022/03/21 02:34:54;;;;;;;54.38;34.42;;;;;;;;;;5084708;28;20089;-63
2022/03/21 02:37:21;;;;;;;53.95;32.97;;;;;;;;;;5089683;28;20036;-63
2022/03/21 02:39:47;;;;;;;52.13;33.47;;;;;;;;;;5092782;28;20032;-63
2022/03/21 02:42:14;;;;;;;54.78;32.67;;;;;;;;;;5093737;28;20028;-63
2022/03/21 02:44:40;;;;;;;51.13;32.58;;;;;;;;;;5090133;28;20040;-63
2022/03/21 02:47:06;;;;;;;53.35;33.20;;;;;;;;;;5094018;28;20043;-63
2022/03/21 02:49:33;;;;;;;54.53;32.83;;;;;;;;;;5093292;28;20036;-63
2022/03/21 02:51:59;;;;;;;53.00;32.78;;;;;;;;;;5093957;28;20032;-63
2022/03/21 02:54:29;;;;;;;53.45;32.17;;;;;;;;;;5092192;28;20062;-63
2022/03/21 02:56:55;;;;;;;52.72;32.90;;;;;;;;;;5090836;28;20032;-63
2022/03/21 02:59:21;;;;;;;52.13;30.98;;;;;;;;;;5092175;28;20039;-63
2022/03/21 03:01:47;;;;;;;53.97;32.85;;;;;;;;;;5093063;28;20380;-63
2022/03/21 03:04:13;;;;;;;53.95;31.52;;;;;;;;;;5093014;28;20047;-63
2022/03/21 03:06:39;;;;;;;48.33;30.77;;;;;;;;;;5089099;28;20079;-63
2022/03/21 03:09:08;;;;;;;52.15;31.20;;;;;;;;;;5086390;28;20141;-63
2022/03/21 03:11:38;;;;;;;48.15;30.40;;;;;;;;;;5083806;28;20044;-63
2022/03/21 03:14:04;;;;;;;46.70;28.88;;;;;;;;;;5092334;28;20071;-63
2022/03/21 03:16:30;;;;;;;49.53;30.25;;;;;;;;;;5093195;28;20040;-63
2022/03/21 03:18:56;;;;;;;43.47;28.38;;;;;;;;;;5091388;28;20039;-63
2022/03/21 03:21:26;;;;;;;45.42;28.98;;;;;;;;;;5092173;28;20391;-63
2022/03/21 03:23:53;;;;;;;47.47;28.30;;;;;;;;;;5093614;28;20036;-63
2022/03/21 03:26:19;;;;;;;44.05;28.30;;;;;;;;;;5092631;28;20115;-63
2022/03/21 03:28:45;;;;;;;43.13;27.60;;;;;;;;;;5093117;28;20090;-63
2022/03/21 03:31:13;;;;;;;40.70;26.35;;;;;;;;;;5091464;28;20039;-63
2022/03/21 03:33:39;;;;;;;46.05;28.10;;;;;;;;;;5092628;28;20048;-62
2022/03/21 03:36:05;;;;;;;40.90;26.45;;;;;;;;;;5092579;28;20032;-63
2022/03/21 03:38:31;;;;;;;40.08;25.90;;;;;;;;;;5091166;28;20397;-63
2022/03/21 03:40:57;;;;;;;44.30;27.52;;;;;;;;;;5093111;28;20032;-63
2022/03/21 03:43:24;;;;;;;43.38;26.52;;;;;;;;;;5090535;28;20044;-63
2022/03/21 03:45:53;;;;;;;43.08;26.08;;;;;;;;;;5092777;28;20036;-63
2022/03/21 03:48:21;;;;;;;40.25;25.90;;;;;;;;;;5086182;28;20036;-63
2022/03/21 03:50:47;;;;;;;40.67;25.95;;;;;;;;;;5092384;28;20445;-63
2022/03/21 03:53:14;;;;;;;44.10;25.63;;;;;;;;;;5086390;28;20128;-63
2022/03/21 03:55:40;;;;;;;43.05;25.83;;;;;;;;;;5092302;28;20040;-63
2022/03/21 03:58:06;;;;;;;34.78;24.38;;;;;;;;;;5092160;28;20110;-62
2022/03/21 04:00:32;;;;;;;43.03;24.80;;;;;;;;;;5092739;28;20028;-63
2022/03/21 04:05:44;;;;;;;36.35;23.10;;;;;;;;;;5092282;28;20076;-63
2022/03/21 04:08:10;;;;;;;39.55;24.80;;;;;;;;;;5092150;28;20040;-63
2022/03/21 04:10:36;;;;;;;39.58;24.23;;;;;;;;;;5089956;28;20101;-63
2022/03/21 04:13:03;;;;;;;39.95;24.88;;;;;;;;;;5089543;28;20147;-63
2022/03/21 04:15:29;;;;;;;40.20;24.98;;;;;;;;;;5089654;28;20096;-63
2022/03/21 04:17:59;;;;;;;37.20;24.27;;;;;;;;;;5091225;28;20482;-63
2022/03/21 04:20:25;;;;;;;40.03;23.58;;;;;;;;;;5092645;28;20032;-63
2022/03/21 04:22:51;;;;;;;36.28;23.45;;;;;;;;;;5084476;28;20539;-63
2022/03/21 04:25:17;;;;;;;37.58;23.73;;;;;;;;;;5090599;28;20039;-63
2022/03/21 04:27:43;;;;;;;37.20;22.38;;;;;;;;;;5085531;28;20121;-63
2022/03/21 04:30:10;;;;;;;39.55;23.05;;;;;;;;;;5092059;28;20397;-63
2022/03/21 04:32:36;;;;;;;39.75;24.13;;;;;;;;;;5085349;28;20040;-63
2022/03/21 04:35:03;;;;;;;38.47;23.63;;;;;;;;;;5089645;28;20047;-63
2022/03/21 04:37:29;;;;;;;33.22;21.55;;;;;;;;;;5088045;28;20406;-63
2022/03/21 04:39:55;;;;;;;40.17;21.77;;;;;;;;;;5088159;28;20040;-63
2022/03/21 04:42:22;;;;;;;38.28;22.80;;;;;;;;;;5090102;28;20043;-63
2022/03/21 04:44:50;;;;;;;35.10;21.75;;;;;;;;;;5086991;28;20494;-63
2022/03/21 04:47:17;;;;;;;34.85;22.92;;;;;;;;;;5088850;28;20044;-63
2022/03/21 04:49:43;;;;;;;34.03;22.23;;;;;;;;;;5091646;28;20075;-63
2022/03/21 04:52:09;;;;;;;34.42;21.02;;;;;;;;;;5090670;28;20040;-63
2022/03/21 04:54:35;;;;;;;34.50;21.55;;;;;;;;;;5090962;28;20461;-63
2022/03/21 04:57:01;;;;;;;33.53;21.50;;;;;;;;;;5087408;28;20122;-63
2022/03/21 04:59:27;;;;;;;30.95;20.52;;;;;;;;;;5086890;28;20059;-63
2022/03/21 05:01:53;;;;;;;29.95;19.02;;;;;;;;;;5088145;28;20475;-63
2022/03/21 05:04:19;;;;;;;32.35;20.75;;;;;;;;;;5090982;28;20044;-63
2022/03/21 05:06:48;;;;;;;29.63;18.52;;;;;;;;;;5090685;28;20468;-63
2022/03/21 05:09:14;;;;;;;30.48;18.85;;;;;;;;;;5086040;28;20167;-63
2022/03/21 05:11:40;;;;;;;31.60;19.48;;;;;;;;;;5077959;28;20963;-63
2022/03/21 05:14:06;;;;;;;28.98;18.25;;;;;;;;;;5087828;28;20400;-63
2022/03/21 05:16:32;;;;;;;28.00;18.45;;;;;;;;;;5087316;28;20055;-63
2022/03/21 05:18:59;;;;;;;32.45;18.90;;;;;;;;;;5090843;28;20070;-63
2022/03/21 05:21:25;;;;;;;27.80;18.95;;;;;;;;;;5089680;28;20478;-63
2022/03/21 05:32:05;;;;;;;25.20;16.23;;;;;;;;;;5088564;28;20038;-63
2022/03/21 05:37:17;;;;;;;27.42;18.08;;;;;;;;;;5088176;28;20032;-63
2022/03/21 05:42:28;;;;;;;27.10;17.75;;;;;;;;;;5087769;28;20502;-63
2022/03/21 05:44:54;;;;;;;28.85;16.77;;;;;;;;;;5087860;28;20048;-63
2022/03/21 05:47:20;;;;;;;26.60;16.92;;;;;;;;;;5087991;28;20035;-63
2022/03/21 05:49:46;;;;;;;25.98;17.73;;;;;;;;;;5090408;28;20036;-63
2022/03/21 05:52:12;;;;;;;25.75;16.88;;;;;;;;;;5089958;28;20039;-63
2022/03/21 05:54:38;;;;;;;27.38;17.20;;;;;;;;;;5089958;28;20051;-63
2022/03/21 05:57:04;;;;;;;28.20;18.27;;;;;;;;;;5083850;28;20032;-63
2022/03/21 06:02:16;;;;;;;28.98;16.60;;;;;;;;;;5088323;28;20363;-63
2022/03/21 06:04:42;;;;;;;32.30;18.45;;;;;;;;;;5089748;28;20094;-63
2022/03/21 06:07:10;;;;;;;30.48;17.73;;;;;;;;;;5086551;28;20044;-63
2022/03/21 06:09:36;;;;;;;30.08;17.83;;;;;;;;;;5086602;28;20428;-61
2022/03/21 06:12:02;;;;;;;29.98;17.35;;;;;;;;;;5086398;28;20123;-63
2022/03/21 06:14:28;;;;;;;26.95;18.25;;;;;;;;;;5087890;28;20052;-63
2022/03/21 06:16:54;;;;;;;28.58;18.23;;;;;;;;;;5084718;28;20036;-62
2022/03/21 06:19:20;;;;;;;27.83;17.85;;;;;;;;;;5087397;28;20047;-63
2022/03/21 06:21:46;;;;;;;27.08;17.48;;;;;;;;;;5086474;28;20075;-63
2022/03/21 06:24:13;;;;;;;24.40;15.60;;;;;;;;;;5085171;28;20062;-63
2022/03/21 06:26:42;;;;;;;28.88;17.13;;;;;;;;;;5080881;28;20039;-63
2022/03/21 06:29:09;;;;;;;25.88;16.90;;;;;;;;;;5080508;28;20024;-62
2022/03/21 06:31:35;;;;;;;26.98;18.05;;;;;;;;;;5081782;28;20040;-63
2022/03/21 06:34:01;;;;;;;26.65;17.08;;;;;;;;;;5090248;28;20044;-62
2022/03/21 06:36:27;;;;;;;28.67;16.83;;;;;;;;;;5081817;28;20036;-62
2022/03/21 06:38:53;;;;;;;22.65;15.88;;;;;;;;;;5089168;28;20376;-62
2022/03/21 06:41:20;;;;;;;25.27;16.15;;;;;;;;;;5084248;28;20035;-63
2022/03/21 06:43:46;;;;;;;24.33;15.70;;;;;;;;;;5089681;28;20036;-63
2022/03/21 06:46:12;;;;;;;23.13;15.48;;;;;;;;;;5087184;28;20123;-63
2022/03/21 06:48:38;;;;;;;23.92;15.48;;;;;;;;;;5089481;28;20126;-63
2022/03/21 06:51:04;;;;;;;23.30;15.23;;;;;;;;;;5082624;28;20067;-62
2022/03/21 06:53:30;;;;;;;24.13;16.15;;;;;;;;;;5089991;28;20044;-62
2022/03/21 06:55:56;;;;;;;38.40;26.02;;;;;;;;;;5088830;28;20037;-62
2022/03/21 06:58:22;;;;;;;43.45;28.45;;;;;;;;;;5090361;28;20124;-63
2022/03/21 07:00:48;;;;;;;101.72;61.47;;;;;;;;;;5089138;28;20115;-63
2022/03/21 07:03:15;;;;;;;120.70;73.13;;;;;;;;;;5090000;28;20063;-63
2022/03/21 07:05:41;;;;;;;96.53;57.00;;;;;;;;;;5086418;28;20123;-62
2022/03/21 07:08:07;;;;;;;27.63;18.23;;;;;;;;;;5084900;28;20040;-62
2022/03/21 07:10:33;;;;;;;34.70;20.70;;;;;;;;;;5089930;28;20126;-62
2022/03/21 07:13:01;;;;;;;23.58;16.52;;;;;;;;;;5084754;28;20047;-63
2022/03/21 07:15:27;;;;;;;25.95;16.05;;;;;;;;;;5089520;28;20402;-63
2022/03/21 07:17:55;;;;;;;23.67;15.02;;;;;;;;;;5079284;28;20391;-63
2022/03/21 07:20:21;;;;;;;25.40;16.13;;;;;;;;;;5090014;28;20097;-63
2022/03/21 07:22:47;;;;;;;19.50;14.50;;;;;;;;;;5089662;28;20123;-63
2022/03/21 07:25:13;;;;;;;22.50;15.00;;;;;;;;;;5093284;28;20542;-62
2022/03/21 07:27:43;;;;;;;22.05;15.30;;;;;;;;;;5090900;28;20441;-62
2022/03/21 07:30:12;;;;;;;24.30;15.07;;;;;;;;;;5092200;28;20047;-63
2022/03/21 07:32:38;;;;;;;26.30;15.75;;;;;;;;;;5085381;28;20402;-63
2022/03/21 07:35:04;;;;;;;26.23;16.33;;;;;;;;;;5092495;28;20051;-63
2022/03/21 07:37:38;;;;;;;24.58;16.52;;;;;;;;;;5091291;28;20036;-63
2022/03/21 07:40:04;;;;;;;27.33;15.07;;;;;;;;;;5088537;28;20119;-63
2022/03/21 07:42:31;;;;;;;25.85;15.98;;;;;;;;;;5093007;28;20047;-62
2022/03/21 07:47:41;;;;;;;23.45;15.85;;;;;;;;;;5092825;28;20079;-62
2022/03/21 07:50:08;;;;;;;25.67;15.23;;;;;;;;;;5090712;28;20032;-63
2022/03/21 07:52:34;;;;;;;25.05;16.42;;;;;;;;;;5092802;28;20482;-62
2022/03/21 07:55:00;;;;;;;23.70;15.43;;;;;;;;;;5085718;28;20486;-63
2022/03/21 07:57:27;;;;;;;24.33;16.13;;;;;;;;;;5089032;28;20048;-63
2022/03/21 07:59:54;;;;;;;26.88;15.50;;;;;;;;;;5092411;28;20469;-63
2022/03/21 08:02:21;;;;;;;26.38;17.85;;;;;;;;;;5089813;28;20032;-63
2022/03/21 08:04:47;;;;;;;25.55;17.63;;;;;;;;;;5092327;28;20056;-63
2022/03/21 08:07:14;;;;;;;23.23;15.55;;;;;;;;;;5091084;28;20494;-63
2022/03/21 08:09:40;;;;;;;25.10;15.93;;;;;;;;;;5090633;28;20093;-62
2022/03/21 08:12:07;;;;;;;23.73;15.18;;;;;;;;;;5092032;28;20036;-63
2022/03/21 08:14:33;;;;;;;23.55;15.70;;;;;;;;;;5092449;28;20040;-63
2022/03/21 08:16:59;;;;;;;20.90;15.07;;;;;;;;;;5092200;28;20546;-62
2022/03/21 08:19:26;;;;;;;22.88;15.40;;;;;;;;;;5090575;28;20479;-63
2022/03/21 08:21:55;;;;;;;25.27;15.50;;;;;;;;;;5092355;28;20067;-64
2022/03/21 08:24:24;;;;;;;21.20;14.00;;;;;;;;;;5092258;28;20097;-63
2022/03/21 08:26:51;;;;;;;23.15;13.95;;;;;;;;;;5087902;28;20094;-63
2022/03/21 08:29:17;;;;;;;20.60;13.95;;;;;;;;;;5091924;28;20044;-63
2022/03/21 08:31:43;;;;;;;20.85;13.93;;;;;;;;;;5091973;28;20085;-63
2022/03/21 08:34:09;;;;;;;19.45;13.27;;;;;;;;;;5090977;28;20044;-63
2022/03/21 08:36:35;;;;;;;19.95;13.73;;;9.50;99.90;;;;;;5091452;28;20044;-63
2022/03/21 08:39:02;;;;;;;17.92;13.25;;;;;;;;;;5092010;28;20043;-63
2022/03/21 08:41:28;;;;;;;19.50;12.80;;;;;;;;;;5091587;28;20063;-63
2022/03/21 08:43:54;;;;;;;21.73;13.60;;;;;;;;;;5091754;28;20043;-63
2022/03/21 08:46:21;;;;;;;18.50;13.27;;;;;;;;;;5091280;28;20044;-63
2022/03/21 08:51:52;;;;;;;23.23;13.70;;;;;;;;;;5049209;28;20114;-63
2022/03/21 08:54:18;;;;;;;20.50;13.82;;;;;;;;;;5018043;28;20053;-63
2022/03/21 08:56:44;;;;;;;21.42;13.40;;;;;;;;;;5029017;28;20053;-63
2022/03/21 08:59:11;;;;;;;23.45;13.40;;;;;;;;;;5028965;28;20602;-63
2022/03/21 09:01:37;;;;;;;20.38;13.05;;;;;;;;;;5028816;28;20120;-63
2022/03/21 09:04:03;;;;;;;16.35;12.77;;;;;;;;;;5028907;28;20041;-63
2022/03/21 09:06:29;;;;;;;21.63;13.77;;;;;;;;;;5028920;28;20543;-63
2022/03/21 09:08:58;;;;;;;20.23;13.50;;;;;;;;;;5028887;28;20057;-63
2022/03/21 09:11:26;;;;;;;20.17;12.60;;;;;;;;;;5028660;28;20466;-63
2022/03/21 09:13:52;;;;;;;20.13;12.68;;;;;;;;;;5038836;28;20064;-63
2022/03/21 09:16:18;;;;;;;19.20;12.63;;;;;;;;;;5048182;28;20482;-63
2022/03/21 09:18:44;;;;;;;20.05;12.93;;;;;;;;;;5048333;28;20111;-63
2022/03/21 09:21:11;;;;;;;23.48;13.98;;;11.80;99.90;;;;;;5019521;28;20045;-63
2022/03/21 09:23:37;;;;;;;22.35;13.80;;;;;;;;;;5082643;28;20608;-63
2022/03/21 09:26:04;;;;;;;19.90;13.10;;;;;;;;;;5090819;28;20039;-63
2022/03/21 09:28:32;;;;;;;21.40;13.45;;;12.50;99.90;;;;;;5087038;28;20502;-63
2022/03/21 09:30:59;;;;;;;22.58;13.93;;;;;;;;;;5090783;28;20040;-63
2022/03/21 09:33:25;;;;;;;20.77;14.15;;;;;;;;;;5090568;28;20036;-64
2022/03/21 09:35:51;;;;;;;21.50;14.05;;;;;;;;;;5088884;28;20052;-63
2022/03/21 09:38:17;;;;;;;22.52;15.65;;;;;;;;;;5089800;28;20048;-64
2022/03/21 09:40:44;;;;;;;26.77;14.60;;;;;;;;;;5088768;28;20048;-63
2022/03/21 09:43:10;;;;;;;22.27;14.98;;;;;;;;;;5090209;28;20063;-63
2022/03/21 09:45:36;;;;;;;27.35;16.00;;;;;;;;;;5090070;28;20047;-63
2022/03/21 09:48:11;;;;;;;24.27;15.27;;;;;;;;;;5089685;28;20131;-63
2022/03/21 09:50:42;;;;;;;25.35;15.65;;;13.10;99.90;;;;;;5090517;28;20097;-63
2022/03/21 09:53:10;;;;;;;26.23;15.80;;;13.60;99.90;;;;;;5090243;28;20086;-63
2022/03/21 09:55:36;;;;;;;31.60;16.13;;;;;;;;;;5089188;28;20072;-63
2022/03/21 09:58:03;;;;;;;23.88;16.02;;;;;;;;;;5090412;28;20068;-63
2022/03/21 10:00:29;;;;;;;25.52;16.88;;;;;;;;;;5090739;28;20432;-63
2022/03/21 10:02:56;;;;;;;26.10;17.10;;;13.80;99.90;;;;;;5090277;28;20036;-64
2022/03/21 10:05:34;;;;;;;24.05;16.52;;;13.90;99.90;;;;;;5090261;28;20056;-63
2022/03/21 10:08:12;;;;;;;24.85;16.15;;;14.10;99.90;;;;;;5090175;28;20044;-63
2022/03/21 10:10:39;;;;;;;25.20;16.90;;;;;;;;;;5090043;28;20036;-64
2022/03/21 10:13:09;;;;;;;25.85;16.10;;;14.00;99.90;;;;;;5090268;28;20090;-64
2022/03/21 10:15:38;;;;;;;27.77;16.88;;;;;;;;;;5088675;28;20123;-64
2022/03/21 10:18:05;;;;;;;24.63;17.88;;;;;;;;;;5089934;28;20044;-64
2022/03/21 10:20:35;;;;;;;29.55;17.80;;;;;;;;;;5090365;28;20048;-64
2022/03/21 10:23:22;;;;;;;25.10;15.75;;;15.00;99.90;;;;;;5090372;28;20092;-64
2022/03/21 10:25:49;;;;;;;24.38;16.02;;;;;;;;;;5090098;28;20062;-64
2022/03/21 10:28:33;;;;;;;25.08;16.15;;;;;;;;;;5089983;28;20051;-63
2022/03/21 10:31:00;;;;;;;23.27;16.35;;;15.50;99.90;;;;;;5089928;28;20032;-63
2022/03/21 10:33:27;;;;;;;28.25;16.95;;;;;;;;;;5090111;28;20379;-63
2022/03/21 10:35:53;;;;;;;27.35;16.15;;;;;;;;;;5090308;28;20075;-64
2022/03/21 10:38:35;;;;;;;25.92;16.38;;;;;;;;;;5090165;28;20043;-64
2022/03/21 10:41:08;;;;;;;24.08;15.35;;;;;;;;;;5090149;28;20032;-63
2022/03/21 10:43:34;;;;;;;23.38;16.10;;;;;;;;;;5090175;28;20036;-63
2022/03/21 10:46:02;;;;;;;23.05;15.13;;;;;;;;;;5090383;28;20034;-63
2022/03/21 10:48:29;;;;;;;20.42;13.88;;;;;;;;;;5089970;28;22306;-63
2022/03/21 10:50:56;;;;;;;20.85;15.07;;;17.30;99.90;;;;;;5089629;28;20036;-64
2022/03/21 10:53:32;;;;;;;25.42;15.07;;;17.30;99.90;;;;;;5089505;28;20043;-63
2022/03/21 10:55:58;;;;;;;24.33;14.90;;;;;;;;;;5088491;28;20093;-64
2022/03/21 10:58:38;;;;;;;20.00;15.57;;;;;;;;;;5091983;28;20052;-63
2022/03/21 11:01:13;;;;;;;22.90;16.08;;;;;;;;;;5086100;28;20048;-64
2022/03/21 11:03:41;;;;;;;20.42;15.70;;;;;;;;;;5091387;28;20481;-63
2022/03/21 11:06:08;;;;;;;26.42;15.63;;;;;;;;;;5091737;28;20043;-64
2022/03/21 11:08:34;;;;;;;22.98;15.52;;;;;;;;;;5088339;28;20107;-63
2022/03/21 11:11:00;;;;;;;23.38;16.08;;;;;;;;;;5090948;28;20043;-64
2022/03/21 11:13:27;;;;;;;22.85;16.08;;;18.80;99.90;;;;;;5094416;28;20031;-64
2022/03/21 11:15:53;;;;;;;23.77;16.58;;;;;;;;;;5090292;28;20127;-64
2022/03/21 11:18:21;;;;;;;22.13;16.00;;;18.60;99.90;;;;;;5088797;28;20032;-64
2022/03/21 11:20:47;;;;;;;22.35;16.00;;;;;;;;;;5091232;28;20032;-64
2022/03/21 11:23:15;;;;;;;22.95;16.45;;;;;;;;;;5093282;28;20035;-64
2022/03/21 11:25:48;;;;;;;22.83;16.92;;;18.90;99.90;;;;;;5093219;28;20044;-64
2022/03/21 11:28:33;;;;;;;21.08;16.00;;;19.20;99.90;;;;;;5090852;28;20055;-62
2022/03/21 11:31:25;;;;;;;24.02;16.02;;;19.30;99.90;;;;;;5092914;28;20044;-62
2022/03/21 11:33:51;;;;;;;23.90;15.52;;;;;;;;;;5091534;28;20498;-62
2022/03/21 11:36:17;;;;;;;22.90;16.02;;;;;;;;;;5093217;28;20043;-63
2022/03/21 11:38:45;;;;;;;22.45;15.77;;;19.80;99.60;;;;;;5091914;28;20036;-63
2022/03/21 11:41:11;;;;;;;24.02;16.95;;;;;;;;;;5093359;28;20532;-63
2022/03/21 11:43:40;;;;;;;24.77;17.05;;;;;;;;;;5092699;28;20047;-62
2022/03/21 11:46:27;;;;;;;24.83;16.23;;;;;;;;;;5092786;28;20119;-62
2022/03/21 11:48:57;;;;;;;21.58;15.73;;;20.80;97.50;;;;;;5087024;28;20431;-62
2022/03/21 11:51:26;;;;;;;23.45;15.63;;;20.50;95.50;;;;;;5092989;28;20038;-62
2022/03/21 11:53:54;;;;;;;21.58;15.40;;;20.30;95.80;;;;;;5092387;28;20490;-62
2022/03/21 11:56:45;;;;;;;22.40;17.05;;;20.50;94.70;;;;;;5092556;28;20032;-62
2022/03/21 11:59:31;;;;;;;22.75;16.63;;;20.20;95.00;;;;;;5090876;28;20077;-65
2022/03/21 12:01:57;;;;;;;21.17;16.60;;;;;;;;;;5092249;28;20036;-63
2022/03/21 12:04:27;;;;;;;24.42;16.63;;;20.30;93.40;;;;;;5092282;28;20101;-62
2022/03/21 12:07:19;;;;;;;25.95;16.88;;;20.40;94.00;;;;;;5092441;28;20052;-63
2022/03/21 12:09:46;;;;;;;25.88;17.75;;;;;;;;;;5072767;28;20449;-63
2022/03/21 12:12:12;;;;;;;25.08;17.10;;;;;;;;;;5092358;28;20081;-63
2022/03/21 12:14:46;;;;;;;24.33;16.70;;;20.10;93.90;;;;;;5091917;28;20036;-63
2022/03/21 12:17:12;;;;;;;21.88;15.43;;;;;;;;;;5092453;28;20032;-63
2022/03/21 12:19:55;;;;;;;23.10;16.65;;;;;;;;;;5092777;28;20482;-63
2022/03/21 12:22:30;;;;;;;24.20;16.13;;;20.20;93.00;;;;;;5087413;28;20046;-63
2022/03/21 12:25:05;;;;;;;25.63;16.77;;;;;;;;;;5090878;28;20042;-63
2022/03/21 12:27:32;;;;;;;24.92;16.17;;;;;;;;;;5092338;28;20448;-63
2022/03/21 12:30:16;;;;;;;24.13;16.77;;;;;;;;;;5092216;28;20032;-63
2022/03/21 12:33:10;;;;;;;27.10;17.08;;;19.80;93.70;;;;;;5091934;28;20097;-63
2022/03/21 12:35:43;;;;;;;25.15;15.85;;;;;;;;;;5092323;28;20048;-63
2022/03/21 12:38:21;;;;;;;22.67;16.40;;;20.00;92.60;;;;;;5092048;28;20513;-63
2022/03/21 12:40:47;;;;;;;26.30;16.45;;;;;;;;;;5090720;28;20028;-63
2022/03/21 12:43:15;;;;;;;26.02;16.20;;;19.30;93.60;;;;;;5091543;28;20124;-63
2022/03/21 12:45:44;;;;;;;22.08;16.15;;;;;;;;;;5091924;28;20044;-63
2022/03/21 12:48:17;;;;;;;23.17;15.82;;;19.70;93.70;;;;;;5091704;28;20070;-63
2022/03/21 12:50:47;;;;;;;25.98;16.45;;;20.30;94.20;;;;;;5091742;28;20127;-63
2022/03/21 12:53:15;;;;;;;24.42;15.88;;;;;;;;;;5091263;28;20044;-63
2022/03/21 12:55:41;;;;;;;21.08;15.43;;;;;;;;;;5091803;28;20485;-63
2022/03/21 12:58:10;;;;;;;23.65;15.90;;;21.40;93.20;;;;;;5073205;28;20036;-63
2022/03/21 13:00:40;;;;;;;24.58;15.40;;;;;;;;;;5091843;28;20048;-63
2022/03/21 13:03:07;;;;;;;21.80;15.75;;;;;;;;;;5090982;28;20055;-63
2022/03/21 13:11:40;;;;;;;20.92;14.82;;;;;;;;;;5091423;28;20048;-63
2022/03/21 13:14:14;;;;;;;25.20;16.48;;;23.60;88.40;;;;;;5087777;28;20101;-63
2022/03/21 13:16:49;;;;;;;22.25;14.15;;;23.90;90.70;;;;;;5089580;28;20040;-62
2022/03/21 13:19:20;;;;;;;20.92;15.18;;;;;;;;;;5090994;28;20036;-63
2022/03/21 13:21:49;;;;;;;23.17;16.17;;;;;;;;;;5090875;28;20487;-63
2022/03/21 13:24:32;;;;;;;26.08;16.45;;;23.80;87.30;;;;;;5090646;28;20124;-62
2022/03/21 13:26:58;;;;;;;22.27;15.38;;;;;;;;;;5087765;28;20072;-63
2022/03/21 13:29:24;;;;;;;23.90;14.75;;;;;;;;;;5088261;28;20547;-63
2022/03/21 13:31:55;;;;;;;22.38;14.60;;;;;;;;;;5091104;28;20048;-62
2022/03/21 13:34:21;;;;;;;21.50;14.23;;;;;;;;;;5088937;28;20036;-62
2022/03/21 13:36:47;;;;;;;20.25;14.38;;;;;;;;;;5089832;28;20040;-63
2022/03/21 13:39:15;;;;;;;22.27;14.98;;;25.20;85.90;;;;;;5085536;28;20157;-63
2022/03/21 13:41:54;;;;;;;21.52;14.27;;;;;;;;;;5088959;28;20044;-63
2022/03/21 13:44:28;;;;;;;20.02;14.05;;;25.10;82.40;;;;;;5086501;28;20044;-63
2022/03/21 13:47:11;;;;;;;21.25;14.00;;;25.10;80.90;;;;;;5088800;28;20049;-63
2022/03/21 13:49:45;;;;;;;23.63;14.80;;;24.70;81.10;;;;;;5089972;28;20032;-63
2022/03/21 13:52:32;;;;;;;21.13;14.38;;;24.50;83.00;;;;;;5088296;28;20035;-63
2022/03/21 13:54:59;;;;;;;25.08;14.90;;;;;;;;;;5089893;28;20044;-63
2022/03/21 13:57:25;;;;;;;19.40;14.15;;;;;;;;;;5088047;28;20144;-63
2022/03/21 14:00:10;;;;;;;23.55;14.32;;;23.60;83.90;;;;;;5089956;28;20111;-63
2022/03/21 14:02:43;;;;;;;20.27;14.05;;;;;;;;;;5087419;28;20043;-63
2022/03/21 14:05:17;;;;;;;20.27;15.48;;;24.30;82.60;;;;;;5088411;28;20059;-64
2022/03/21 14:07:44;;;;;;;20.95;15.00;;;24.70;91.20;;;;;;5089161;28;20859;-64
2022/03/21 14:10:24;;;;;;;22.20;14.25;;;25.40;82.60;;;;;;5087410;28;20035;-63
2022/03/21 14:12:54;;;;;;;24.73;13.38;;;25.30;81.60;;;;;;5089339;28;20059;-64
2022/03/21 14:15:24;;;;;;;21.55;14.70;;;25.30;79.30;;;;;;5087814;28;20036;-63
2022/03/21 14:17:51;;;;;;;27.25;14.93;;;24.90;79.20;;;;;;5089228;28;20036;-63
2022/03/21 14:20:20;;;;;;;25.48;14.77;;;;;;;;;;5088785;28;20032;-64
2022/03/21 14:22:49;;;;;;;22.23;15.23;;;24.90;79.10;;;;;;5084749;28;20068;-63
2022/03/21 14:27:59;;;;;;;22.02;14.63;;;24.90;81.30;;;;;;5089415;28;20119;-64
2022/03/21 14:30:25;;;;;;;21.83;14.30;;;;;;;;;;5086893;28;20169;-63
2022/03/21 14:32:51;;;;;;;26.35;14.38;;;24.00;89.80;;;;;;5090507;28;20047;-63
2022/03/21 14:35:17;;;;;;;18.25;13.90;;;;;;;;;;5093438;28;20032;-63
2022/03/21 14:37:43;;;;;;;21.13;14.90;;;;;;;;;;5094917;28;20051;-64
2022/03/21 14:40:09;;;;;;;20.67;14.75;;;23.30;90.30;;;;;;5094311;28;20441;-63